Weather Data

Pearl Creek Farm: 8878 N Farm Road 75, Walnut Grove MO 65770

<== Previous Day (Tuesday 14 Jan 2014) | Next Day (Thursday 16 Jan 2014) ==>

Summary Precipitation Data For Wednesday 15 January 2014

ElementValueUnits
Precipitation0"
Notes(none)
SourcePearl Creek Farm

Summary Temperature Data For Wednesday 15 January 2014

ElementValueUnits
High Temperature35 oF
Low Temperature22 oF
Average Temperature28 oF
High Humidity73 %
Low Humidity40 %
Average Humidity59 %
SourcePearl Creek Farm

Detail Temperature Data For Wednesday 15 January 2014

Date / TimeTemp (F)RH (%)Dew Pt (F)Report Date / TimeSource
2014-01-15 00:00:00 29 59 16.3 2014-02-09 14:43:36 Pearl Creek Farm
2014-01-15 00:30:00 29 60 16.9 2014-02-09 14:43:36 Pearl Creek Farm
2014-01-15 01:00:00 28 60 15.8 2014-02-09 14:43:36 Pearl Creek Farm
2014-01-15 01:30:00 28 57 14.6 2014-02-09 14:43:36 Pearl Creek Farm
2014-01-15 02:00:00 28 57 14.6 2014-02-09 14:43:36 Pearl Creek Farm
2014-01-15 02:30:00 27 60 15.0 2014-02-09 14:43:36 Pearl Creek Farm
2014-01-15 03:00:00 25 68 16.0 2014-02-09 14:43:36 Pearl Creek Farm
2014-01-15 03:30:00 25 67 15.6 2014-02-09 14:43:36 Pearl Creek Farm
2014-01-15 04:00:00 25 63 14.0 2014-02-09 14:43:36 Pearl Creek Farm
2014-01-15 04:30:00 25 65 14.8 2014-02-09 14:43:36 Pearl Creek Farm
2014-01-15 05:00:00 24 69 15.2 2014-02-09 14:43:36 Pearl Creek Farm
2014-01-15 05:30:00 23 69 14.4 2014-02-09 14:43:36 Pearl Creek Farm
2014-01-15 06:00:00 23 69 14.2 2014-02-09 14:43:36 Pearl Creek Farm
2014-01-15 06:30:00 23 68 14.1 2014-02-09 14:43:36 Pearl Creek Farm
2014-01-15 07:00:00 22 65 12.1 2014-02-09 14:43:36 Pearl Creek Farm
2014-01-15 07:30:00 22 62 11.0 2014-02-09 14:43:36 Pearl Creek Farm
2014-01-15 08:00:00 22 62 11.0 2014-02-09 14:43:36 Pearl Creek Farm
2014-01-15 08:30:00 22 63 11.2 2014-02-09 14:43:36 Pearl Creek Farm
2014-01-15 09:00:00 23 61 11.6 2014-02-09 14:43:36 Pearl Creek Farm
2014-01-15 09:30:00 24 61 12.5 2014-02-09 14:43:36 Pearl Creek Farm
2014-01-15 10:00:00 25 58 12.4 2014-02-09 14:43:36 Pearl Creek Farm
2014-01-15 10:30:00 26 57 12.7 2014-02-09 14:43:36 Pearl Creek Farm
2014-01-15 11:00:00 27 51 11.1 2014-02-09 14:43:36 Pearl Creek Farm
2014-01-15 11:30:00 28 50 11.6 2014-02-09 14:43:36 Pearl Creek Farm
2014-01-15 12:00:00 29 48 11.8 2014-02-09 14:43:36 Pearl Creek Farm
2014-01-15 12:30:00 31 47 13.2 2014-02-09 14:43:36 Pearl Creek Farm
2014-01-15 13:00:00 31 44 11.7 2014-02-09 14:43:36 Pearl Creek Farm
2014-01-15 13:30:00 33 44 13.3 2014-02-09 14:43:36 Pearl Creek Farm
2014-01-15 14:00:00 33 44 13.3 2014-02-09 14:43:36 Pearl Creek Farm
2014-01-15 14:30:00 34 42 13.4 2014-02-09 14:43:36 Pearl Creek Farm
2014-01-15 15:00:00 34 40 12.3 2014-02-09 14:43:36 Pearl Creek Farm
2014-01-15 15:30:00 35 41 13.5 2014-02-09 14:43:36 Pearl Creek Farm
2014-01-15 16:00:00 35 42 14.0 2014-02-09 14:43:36 Pearl Creek Farm
2014-01-15 16:30:00 35 44 15.3 2014-02-09 14:43:36 Pearl Creek Farm
2014-01-15 17:00:00 33 49 15.7 2014-02-09 14:43:36 Pearl Creek Farm
2014-01-15 17:30:00 31 55 16.6 2014-02-09 14:43:36 Pearl Creek Farm
2014-01-15 18:00:00 28 61 16.1 2014-02-09 14:43:36 Pearl Creek Farm
2014-01-15 18:30:00 27 67 17.4 2014-02-09 14:43:36 Pearl Creek Farm
2014-01-15 19:00:00 26 69 17.3 2014-02-09 14:43:36 Pearl Creek Farm
2014-01-15 19:30:00 26 73 18.6 2014-02-09 14:43:36 Pearl Creek Farm
2014-01-15 20:00:00 28 68 18.7 2014-02-09 14:43:36 Pearl Creek Farm
2014-01-15 20:30:00 30 66 19.9 2014-02-09 14:43:36 Pearl Creek Farm
2014-01-15 21:00:00 30 64 19.3 2014-02-09 14:43:36 Pearl Creek Farm
2014-01-15 21:30:00 31 65 20.5 2014-02-09 14:43:36 Pearl Creek Farm
2014-01-15 22:00:00 32 64 21.2 2014-02-09 14:43:36 Pearl Creek Farm
2014-01-15 22:30:00 32 64 21.1 2014-02-09 14:43:36 Pearl Creek Farm
2014-01-15 23:00:00 33 64 22.0 2014-02-09 14:43:36 Pearl Creek Farm
2014-01-15 23:30:00 33 64 22.0 2014-02-09 14:43:36 Pearl Creek Farm

A total of 48 rows are displayed.